Wayne, NE

10:22 PM CST on November 27, 2014 (GMT -0600)
1 mile South of Wayne | Change Station
CLOSE
Current Station
Personal Weather Station
Location: Wayne, NE
Elevation: 1463 ft
Nearby Weather Stations

Elev 1463 ft 42.22 °N, 97.01 °W | Updated 6 seconds ago

Overcast
Overcast
19.0 °F
Feels Like 4 °F
N
16.1
Wind Variable Wind from SE
Gusts 19.9 mph

Today
High -- | Low -- °F
--% Chance of Precip.
Yesterday
High -- | Low -- °F
Precip. -- in
7:32 AM 4:58 PM
Waxing Crescent, 36% visible
Pressure 30.11 in
Visibility 10.0 miles
Clouds Overcast 11000 ft
Windchill 4 °F
Dew Point 10 °F
Humidity 67%
Rainfall 0.00 in
Snow Depth Not available.
UV 0.0 out of 12
Pollen .10 out of 12
Air Quality Not available.
Flu Activity Not available.
METAR KLCG 280355Z AUTO 16011KT 10SM OVC110 M06/M10 A3011 RMK AO2 T10651105

More Conditions Fewer Conditions

Pressure 30.11 in
Visibility 10.0 miles
Clouds Overcast 11000 ft
Windchill 4 °F
Dew Point 10 °F
Humidity 67%
Rainfall 0.00 in
Snow Depth Not available.
UV 0.0 out of 12
Pollen .10 out of 12
Air Quality Not available.
Flu Activity Not available.
METAR KLCG 280355Z AUTO 16011KT 10SM OVC110 M06/M10 A3011 RMK AO2 T10651105

More Conditions Fewer Conditions

10-Day Weather Forecast

Almanac

Astronomy

Nov. 27, 2014 Rise Set
Actual Time
Civil Twilight
Nautical Twilight
Astronomical Twilight
Moon
Length of Visible Light
Length of Day
Tomorrow will be .
, % of the Moon is Illuminated

Today's Extremes

State Highs State Lows

Community

WunderPhotos

Upload Photos

1,774,180 photos uploaded!

WunderBlogs® & News

Nearby

Air Quality

  Air Quality AQ Index Pollutant
Not available.

Snow Depth

Station Depth Elevation

Earthquake Activity

City Distance Mag. Time & Date
Minimum magnitude displayed is 2.5.

Coastal Water Temperatures

Place Temperature

Nearby Weather Stations